LESA/SLM METAR and TAF weather

Enter ICAO airport designator
Station Type Date Time Source
LESA METAR 2019/02/22 22:30 UTC NOAA

LESA 222230Z AUTO VRB02KT 6000 NCD 01/M02 Q1032


Station Type Date Time Source
LESA Decoded METAR 2019/02/22 22:30 UTC NOAA

Salamanca / Matacan, Spain (LESA) 40-57N 005-30W 795M
Feb 22, 2019 - 05:30 PM EST / 2019.02.22 2230 UTC
Wind: Variable at 2 MPH (2 KT):0
Visibility: 3 mile(s):0
Temperature: 33 F (1 C)
Dew Point: 28 F (-2 C)
Relative Humidity: 80%
Pressure (altimeter): 30.47 in. Hg (1032 hPa)
ob: LESA 222230Z AUTO VRB02KT 6000 NCD 01/M02 Q1032
cycle: 22

Station Type Date Time Source
LESA TAF 2019/02/22 18:27 UTC NOAA

TAF LESA 221700Z 2218/2318 VRB02KT CAVOK TX18/2315Z TNM03/2307Z


Example: see airport list